createdAt,value
2022-08-30T00:01:54.103Z,3.83
2022-08-30T00:04:57.862Z,3.90
2022-08-30T00:08:00.691Z,3.50
2022-08-30T00:11:05.377Z,4.07
2022-08-30T00:14:07.876Z,3.50
2022-08-30T00:17:10.973Z,3.80
2022-08-30T00:20:16.454Z,3.87
2022-08-30T00:23:19.748Z,3.95
2022-08-30T00:26:22.281Z,4.00
2022-08-30T00:29:25.088Z,4.05
2022-08-30T00:32:27.818Z,4.05
2022-08-30T00:35:31.369Z,3.90
2022-08-30T00:38:34.815Z,4.28
2022-08-30T00:41:37.832Z,3.67
2022-08-30T00:44:41.074Z,4.85
2022-08-30T00:47:44.270Z,4.05
2022-08-30T00:50:49.390Z,3.60
2022-08-30T00:53:55.458Z,4.03
2022-08-30T00:56:58.071Z,4.03
2022-08-30T01:00:00.918Z,4.65
2022-08-30T01:03:03.707Z,4.22
2022-08-30T01:06:07.682Z,4.35
2022-08-30T01:09:10.202Z,4.70
2022-08-30T01:12:13.420Z,4.10
2022-08-30T01:15:19.881Z,4.40
2022-08-30T01:18:25.098Z,4.85
2022-08-30T01:21:34.982Z,4.47
2022-08-30T01:24:37.903Z,4.00
2022-08-30T01:27:44.856Z,4.80
2022-08-30T01:30:47.961Z,5.00
2022-08-30T01:33:51.187Z,5.18
2022-08-30T01:36:54.045Z,5.30
2022-08-30T01:39:56.672Z,5.20
2022-08-30T01:42:59.466Z,5.13
2022-08-30T01:46:02.783Z,5.87
2022-08-30T01:49:08.572Z,5.57
2022-08-30T01:52:12.032Z,6.20
2022-08-30T01:55:14.876Z,5.22
2022-08-30T01:58:17.438Z,5.33
2022-08-30T02:01:23.016Z,5.18
2022-08-30T02:04:27.014Z,5.20
2022-08-30T02:07:29.822Z,5.75
2022-08-30T02:10:32.803Z,5.87
2022-08-30T02:13:37.718Z,5.10
2022-08-30T02:16:41.255Z,5.60
2022-08-30T02:19:43.954Z,5.57
2022-08-30T02:22:49.131Z,4.90
2022-08-30T02:25:52.163Z,5.78
2022-08-30T02:28:55.257Z,5.27
2022-08-30T02:31:57.891Z,5.72
2022-08-30T02:35:00.714Z,5.35
2022-08-30T02:38:03.879Z,4.68
2022-08-30T02:41:09.219Z,5.15
2022-08-30T02:44:11.786Z,5.13
2022-08-30T02:47:14.654Z,5.62
2022-08-30T02:50:17.473Z,5.37
2022-08-30T02:53:21.229Z,5.55
2022-08-30T02:56:23.716Z,5.22
2022-08-30T02:59:27.012Z,5.60
2022-08-30T03:02:30.367Z,5.90
2022-08-30T03:05:33.597Z,6.10
2022-08-30T03:08:36.378Z,5.97
2022-08-30T03:11:39.133Z,5.95
2022-08-30T03:14:41.919Z,6.30
2022-08-30T03:17:44.695Z,5.85
2022-08-30T03:20:54.295Z,6.25
2022-08-30T03:23:57.638Z,6.25
2022-08-30T03:27:00.298Z,6.22
2022-08-30T03:30:03.714Z,6.23
2022-08-30T03:33:07.112Z,6.47
2022-08-30T03:36:12.142Z,5.68
2022-08-30T03:39:14.921Z,5.62
2022-08-30T03:42:17.771Z,5.60
2022-08-30T03:45:20.409Z,6.00
2022-08-30T03:48:23.591Z,5.70
2022-08-30T03:51:26.168Z,6.57
2022-08-30T03:54:28.952Z,6.25
2022-08-30T03:57:32.288Z,6.03
2022-08-30T04:00:35.253Z,4.63
2022-08-30T04:03:38.324Z,5.68
2022-08-30T04:06:40.828Z,6.15
2022-08-30T04:09:43.604Z,6.47
2022-08-30T04:12:49.578Z,6.22
2022-08-30T04:15:52.649Z,6.17
2022-08-30T04:18:55.201Z,6.22
2022-08-30T04:21:58.013Z,6.37
2022-08-30T04:25:00.500Z,7.45
2022-08-30T04:28:04.722Z,6.60
2022-08-30T04:31:15.684Z,7.57
2022-08-30T04:34:18.602Z,7.78
2022-08-30T04:37:21.117Z,8.00
2022-08-30T04:40:23.946Z,7.20
2022-08-30T04:43:26.948Z,7.30
2022-08-30T04:46:30.518Z,6.80
2022-08-30T04:49:33.086Z,8.07
2022-08-30T04:52:36.391Z,6.47
2022-08-30T04:55:40.502Z,7.78
2022-08-30T04:58:47.297Z,8.10
2022-08-30T05:01:49.885Z,7.00
2022-08-30T05:05:11.769Z,7.50
2022-08-30T05:08:24.316Z,7.20
2022-08-30T05:11:27.985Z,7.20
2022-08-30T05:14:30.559Z,6.18
2022-08-30T05:17:33.478Z,6.67
2022-08-30T05:20:36.725Z,7.15
2022-08-30T05:23:40.486Z,7.07
2022-08-30T05:26:43.005Z,7.55
2022-08-30T05:29:45.858Z,6.62
2022-08-30T05:32:48.540Z,6.90
2022-08-30T05:35:51.387Z,6.30
2022-08-30T05:38:54.934Z,6.05
2022-08-30T05:41:59.022Z,5.55
2022-08-30T05:45:02.628Z,5.75
2022-08-30T05:48:05.830Z,5.97
2022-08-30T05:51:12.877Z,6.68
2022-08-30T05:54:16.713Z,7.40
2022-08-30T05:57:20.074Z,6.95
2022-08-30T06:00:23.659Z,6.05
2022-08-30T06:03:27.144Z,6.13
2022-08-30T06:06:30.768Z,6.28
2022-08-30T06:09:34.187Z,6.18
2022-08-30T06:12:36.644Z,5.87
2022-08-30T06:15:39.454Z,5.82
2022-08-30T06:18:42.055Z,4.30
2022-08-30T06:21:49.096Z,4.53
2022-08-30T06:24:57.277Z,5.72
2022-08-30T06:28:01.091Z,6.43
2022-08-30T06:31:08.256Z,6.40
2022-08-30T06:34:11.138Z,4.83
2022-08-30T06:37:24.604Z,4.28
2022-08-30T06:40:32.840Z,5.50
2022-08-30T06:43:35.964Z,5.57
2022-08-30T06:46:39.268Z,5.22
2022-08-30T06:49:41.837Z,4.63
2022-08-30T06:52:46.031Z,5.28
2022-08-30T06:56:05.363Z,4.87
2022-08-30T06:59:08.097Z,4.50
2022-08-30T07:02:10.725Z,4.57
2022-08-30T07:05:18.151Z,4.50
2022-08-30T07:08:23.028Z,4.47
2022-08-30T07:11:36.914Z,4.55
2022-08-30T07:14:40.035Z,4.40
2022-08-30T07:18:01.353Z,4.05
2022-08-30T07:21:09.306Z,4.50
2022-08-30T07:24:13.161Z,3.80
2022-08-30T07:27:15.694Z,4.32
2022-08-30T07:30:19.033Z,3.78
2022-08-30T07:33:21.522Z,3.85
2022-08-30T07:36:24.644Z,3.40
2022-08-30T07:39:27.110Z,3.10
2022-08-30T07:42:34.645Z,3.28
2022-08-30T07:45:38.046Z,3.78
2022-08-30T07:48:41.120Z,3.37
2022-08-30T07:51:47.015Z,3.47
2022-08-30T07:54:52.770Z,3.00
2022-08-30T07:57:55.750Z,3.20
2022-08-30T08:00:59.866Z,3.37
2022-08-30T08:04:02.853Z,3.08
2022-08-30T08:07:05.428Z,3.50
2022-08-30T08:10:09.161Z,3.50
2022-08-30T08:13:11.754Z,4.50
2022-08-30T08:16:14.788Z,4.28
2022-08-30T08:19:20.526Z,4.37
2022-08-30T08:22:23.336Z,4.17
2022-08-30T08:25:26.128Z,3.28
2022-08-30T08:28:28.988Z,3.22
2022-08-30T08:31:33.473Z,2.80
2022-08-30T08:34:37.004Z,3.00
2022-08-30T08:37:40.099Z,2.80
2022-08-30T08:40:56.162Z,2.95
2022-08-30T08:43:58.701Z,2.85
2022-08-30T08:47:22.095Z,2.50
2022-08-30T08:50:25.868Z,2.92
2022-08-30T08:53:46.107Z,2.43
2022-08-30T08:56:49.343Z,2.35
2022-08-30T08:59:54.472Z,2.42
2022-08-30T09:02:59.646Z,2.60
2022-08-30T09:06:28.645Z,2.67
2022-08-30T09:09:40.265Z,2.43
2022-08-30T09:12:44.802Z,2.40
2022-08-30T09:15:49.909Z,3.12
2022-08-30T09:18:56.530Z,2.60
2022-08-30T09:22:14.551Z,2.97
2022-08-30T09:25:29.588Z,3.07
2022-08-30T09:28:35.641Z,3.00
2022-08-30T09:32:01.253Z,3.03
2022-08-30T09:35:13.597Z,2.95
2022-08-30T09:38:22.799Z,3.47
2022-08-30T09:41:38.401Z,3.23
2022-08-30T09:44:41.087Z,3.10
2022-08-30T09:47:43.900Z,3.20
2022-08-30T09:50:51.259Z,3.25
2022-08-30T09:54:18.073Z,2.95
2022-08-30T09:57:33.691Z,3.00
2022-08-30T10:00:53.278Z,3.05
2022-08-30T10:04:02.587Z,3.20
2022-08-30T10:07:15.890Z,3.00
2022-08-30T10:10:44.074Z,2.85
2022-08-30T10:13:56.710Z,2.83
2022-08-30T10:17:13.628Z,3.33
2022-08-30T10:20:21.150Z,3.47
2022-08-30T10:23:31.845Z,3.28
2022-08-30T10:26:43.228Z,3.05
2022-08-30T10:30:02.781Z,3.10
2022-08-30T10:33:08.940Z,2.87
2022-08-30T10:36:14.169Z,3.62
2022-08-30T10:39:24.185Z,3.15
2022-08-30T10:42:35.581Z,3.45
2022-08-30T10:45:43.721Z,3.17
2022-08-30T10:48:48.072Z,3.42
2022-08-30T10:52:16.331Z,2.78
2022-08-30T10:55:26.781Z,3.15
2022-08-30T10:58:31.503Z,3.50
2022-08-30T11:02:04.991Z,3.33
2022-08-30T11:05:25.656Z,3.42
2022-08-30T11:08:47.020Z,3.28
2022-08-30T11:12:26.342Z,3.00
2022-08-30T11:15:32.919Z,3.20
2022-08-30T11:18:51.155Z,2.50
2022-08-30T11:22:15.179Z,2.50
2022-08-30T11:25:57.876Z,2.40
2022-08-30T11:29:03.564Z,1.95
2022-08-30T11:32:18.389Z,2.47
2022-08-30T11:35:48.169Z,2.30
2022-08-30T11:38:51.499Z,1.83
2022-08-30T11:42:27.392Z,2.05
2022-08-30T11:45:43.152Z,2.00
2022-08-30T11:48:54.601Z,2.60
2022-08-30T11:56:01.687Z,2.40
2022-08-30T11:59:22.230Z,1.77
2022-08-30T12:02:52.875Z,2.05
2022-08-30T12:06:01.579Z,1.85
2022-08-30T12:09:08.282Z,1.80
2022-08-30T12:12:32.690Z,2.22
2022-08-30T12:16:12.988Z,2.10
2022-08-30T12:19:19.744Z,1.90
2022-08-30T12:22:23.896Z,2.42
2022-08-30T12:25:31.363Z,1.80
2022-08-30T12:28:33.830Z,1.95
2022-08-30T12:31:45.041Z,2.60
2022-08-30T12:34:54.138Z,2.15
2022-08-30T12:38:12.322Z,1.92
2022-08-30T12:41:19.250Z,2.27
2022-08-30T12:44:25.585Z,2.33
2022-08-30T12:47:57.813Z,2.30
2022-08-30T12:51:01.388Z,1.98
2022-08-30T12:54:11.903Z,2.33
2022-08-30T12:57:38.322Z,1.67
2022-08-30T13:00:46.014Z,2.00
2022-08-30T13:03:59.813Z,1.50
2022-08-30T13:07:02.587Z,1.25
2022-08-30T13:10:10.471Z,1.48
2022-08-30T13:13:37.696Z,1.90
2022-08-30T13:16:45.110Z,1.55
2022-08-30T13:19:58.716Z,1.80
2022-08-30T13:23:07.751Z,1.75
2022-08-30T13:26:11.543Z,1.60
2022-08-30T13:29:16.414Z,1.60
2022-08-30T13:32:18.846Z,1.30
2022-08-30T13:35:21.698Z,1.73
2022-08-30T13:38:24.120Z,1.55
2022-08-30T13:41:30.006Z,1.37
2022-08-30T13:44:36.277Z,1.90
2022-08-30T13:47:44.083Z,1.77
2022-08-30T13:50:46.637Z,1.77
2022-08-30T13:53:53.364Z,1.30
2022-08-30T13:56:56.838Z,1.20
2022-08-30T13:59:59.609Z,1.70
2022-08-30T14:03:02.621Z,1.58
2022-08-30T14:06:31.618Z,1.77
2022-08-30T14:09:28.206Z,1.27
2022-08-30T14:16:26.657Z,1.60
2022-08-30T14:19:17.045Z,1.52
2022-08-30T14:22:20.695Z,1.42
2022-08-30T14:25:23.743Z,1.20
2022-08-30T14:28:29.839Z,1.27
2022-08-30T14:31:33.623Z,1.30
2022-08-30T14:34:36.102Z,1.27
2022-08-30T14:37:39.199Z,1.67
2022-08-30T14:40:42.357Z,1.45
2022-08-30T14:43:45.583Z,1.15
2022-08-30T14:46:48.642Z,1.13
2022-08-30T14:49:51.372Z,1.48
2022-08-30T14:52:53.795Z,1.58
2022-08-30T14:55:56.601Z,1.50
2022-08-30T14:59:02.626Z,1.30
2022-08-30T15:02:06.326Z,1.27
2022-08-30T15:05:08.990Z,1.50
2022-08-30T15:08:11.733Z,1.70
2022-08-30T15:11:16.335Z,1.67
2022-08-30T15:14:19.077Z,1.50
2022-08-30T15:17:21.588Z,1.43
2022-08-30T15:20:24.378Z,1.60
2022-08-30T15:23:26.881Z,1.20
2022-08-30T15:26:29.828Z,1.42
2022-08-30T15:29:32.439Z,1.65
2022-08-30T15:32:35.136Z,1.43
2022-08-30T15:35:37.557Z,1.20
2022-08-30T15:38:42.293Z,1.05
2022-08-30T15:41:45.503Z,1.60
2022-08-30T15:44:57.900Z,1.70
2022-08-30T15:48:01.514Z,1.07
2022-08-30T15:51:07.410Z,1.17
2022-08-30T15:54:13.293Z,1.60
2022-08-30T15:57:16.053Z,1.10
2022-08-30T16:00:19.640Z,0.98
2022-08-30T16:03:22.649Z,1.00
2022-08-30T16:06:28.157Z,1.48
2022-08-30T16:09:32.651Z,1.20
2022-08-30T16:12:35.272Z,1.50
2022-08-30T16:15:41.573Z,2.10
2022-08-30T16:18:44.109Z,1.40
2022-08-30T16:21:47.534Z,1.25
2022-08-30T16:24:51.252Z,1.40
2022-08-30T16:27:54.020Z,1.50
2022-08-30T16:30:56.689Z,1.23
2022-08-30T16:34:02.780Z,1.30
2022-08-30T16:37:06.681Z,1.50
2022-08-30T16:40:11.244Z,1.37
2022-08-30T16:43:15.776Z,1.48
2022-08-30T16:46:23.300Z,1.60
2022-08-30T16:49:25.877Z,1.60
2022-08-30T16:52:28.595Z,1.45
2022-08-30T16:55:31.312Z,1.30
2022-08-30T16:58:34.337Z,1.42
2022-08-30T17:01:37.975Z,1.37
2022-08-30T17:04:42.240Z,1.33
2022-08-30T17:07:46.361Z,1.30
2022-08-30T17:10:50.073Z,1.10
2022-08-30T17:13:52.811Z,1.40
2022-08-30T17:16:57.294Z,1.30
2022-08-30T17:19:59.818Z,1.23
2022-08-30T17:23:02.534Z,1.25
2022-08-30T17:26:05.544Z,1.30
2022-08-30T17:29:08.531Z,1.25
2022-08-30T17:32:11.276Z,1.65
2022-08-30T17:35:15.586Z,1.30
2022-08-30T17:38:19.743Z,1.00
2022-08-30T17:41:22.567Z,1.30
2022-08-30T17:44:29.008Z,1.60
2022-08-30T17:47:32.444Z,1.20
2022-08-30T17:50:39.008Z,1.50
2022-08-30T17:53:41.765Z,1.77
2022-08-30T17:56:44.483Z,1.70
2022-08-30T17:59:47.211Z,2.20
2022-08-30T18:02:49.824Z,2.67
2022-08-30T18:05:52.936Z,1.50
2022-08-30T18:08:55.340Z,1.70
2022-08-30T18:11:58.121Z,2.37
2022-08-30T18:15:01.393Z,1.70
2022-08-30T18:18:15.198Z,1.80
2022-08-30T18:21:19.735Z,1.50
2022-08-30T18:24:25.616Z,1.83
2022-08-30T18:27:28.413Z,1.75
2022-08-30T18:30:34.596Z,3.15
2022-08-30T18:33:42.500Z,11.07
2022-08-30T18:36:46.398Z,14.00
2022-08-30T18:39:49.065Z,22.55
2022-08-30T18:42:53.194Z,11.00
2022-08-30T18:45:56.079Z,6.00
2022-08-30T18:49:00.238Z,5.75
2022-08-30T18:52:06.497Z,3.27
2022-08-30T18:55:09.323Z,3.30
2022-08-30T18:58:11.936Z,2.20
2022-08-30T19:01:22.157Z,2.83
2022-08-30T19:04:35.056Z,4.90
2022-08-30T19:07:39.036Z,5.03
2022-08-30T19:10:42.218Z,4.18
2022-08-30T19:13:45.797Z,4.60
2022-08-30T19:16:48.439Z,4.35
2022-08-30T19:19:52.275Z,5.70
2022-08-30T19:23:10.689Z,4.27
2022-08-30T19:26:13.837Z,8.73
2022-08-30T19:29:16.671Z,7.22
2022-08-30T19:32:19.413Z,4.68
2022-08-30T19:35:22.190Z,3.80
2022-08-30T19:38:25.599Z,3.43
2022-08-30T19:41:29.570Z,2.75
2022-08-30T19:44:32.408Z,3.20
2022-08-30T19:47:39.187Z,2.95
2022-08-30T19:50:42.704Z,2.47
2022-08-30T19:53:46.912Z,3.00
2022-08-30T19:56:49.703Z,3.53
2022-08-30T19:59:52.427Z,4.30
2022-08-30T20:02:55.128Z,4.60
2022-08-30T20:05:57.995Z,3.50
2022-08-30T20:09:01.779Z,3.90
2022-08-30T20:12:04.877Z,3.00
2022-08-30T20:15:11.303Z,3.17
2022-08-30T20:18:14.996Z,3.33
2022-08-30T20:21:17.706Z,3.37
2022-08-30T20:24:20.469Z,3.83
2022-08-30T20:27:23.984Z,3.50
2022-08-30T20:30:27.352Z,3.22
2022-08-30T20:33:29.882Z,3.65
2022-08-30T20:36:33.786Z,3.20
2022-08-30T20:39:37.232Z,3.57
2022-08-30T20:42:43.583Z,4.28
2022-08-30T20:45:46.134Z,4.07
2022-08-30T20:48:48.890Z,3.30
2022-08-30T20:51:54.445Z,3.58
2022-08-30T20:54:57.406Z,2.77
2022-08-30T20:57:59.870Z,3.58
2022-08-30T21:01:02.602Z,3.10
2022-08-30T21:04:05.818Z,3.47
2022-08-30T21:07:08.538Z,3.05
2022-08-30T21:10:11.687Z,2.80
2022-08-30T21:13:14.367Z,2.95
2022-08-30T21:16:17.721Z,3.70
2022-08-30T21:19:24.770Z,3.25
2022-08-30T21:22:27.524Z,2.67
2022-08-30T21:25:33.161Z,3.23
2022-08-30T21:28:36.148Z,3.25
2022-08-30T21:31:38.904Z,2.92
2022-08-30T21:35:04.431Z,2.60
2022-08-30T21:38:08.895Z,2.97
2022-08-30T21:41:12.220Z,3.07
2022-08-30T21:44:21.498Z,3.05
2022-08-30T21:47:24.245Z,3.42
2022-08-30T21:50:27.044Z,2.67
2022-08-30T21:53:29.483Z,2.92
2022-08-30T21:56:32.306Z,2.80
2022-08-30T21:59:34.817Z,2.72
2022-08-30T22:02:37.590Z,2.58
2022-08-30T22:05:40.914Z,3.20
2022-08-30T22:08:45.357Z,3.10
2022-08-30T22:11:48.796Z,2.80
2022-08-30T22:14:52.523Z,2.70
2022-08-30T22:17:55.250Z,3.00
2022-08-30T22:20:58.265Z,2.55
2022-08-30T22:24:01.114Z,3.12
2022-08-30T22:27:05.054Z,3.00
2022-08-30T22:30:08.214Z,3.08
2022-08-30T22:33:10.826Z,3.22
2022-08-30T22:36:23.319Z,2.85
2022-08-30T22:39:34.971Z,3.00
2022-08-30T22:42:37.687Z,2.83
2022-08-30T22:45:40.934Z,2.78
2022-08-30T22:48:45.683Z,3.60
2022-08-30T22:51:48.158Z,3.12
2022-08-30T22:54:50.900Z,3.42
2022-08-30T22:57:53.951Z,2.90
2022-08-30T23:00:56.693Z,3.40
2022-08-30T23:04:01.151Z,3.20
2022-08-30T23:07:04.099Z,3.10
2022-08-30T23:10:07.773Z,3.25
2022-08-30T23:13:10.710Z,3.20
2022-08-30T23:16:14.607Z,3.40
2022-08-30T23:19:17.854Z,2.83
2022-08-30T23:22:20.271Z,3.15
2022-08-30T23:25:42.076Z,3.50
2022-08-30T23:29:05.356Z,3.33
2022-08-30T23:32:27.178Z,3.62
2022-08-30T23:35:48.037Z,3.55
2022-08-30T23:39:09.348Z,4.15
2022-08-30T23:42:30.174Z,4.28
2022-08-30T23:45:51.585Z,3.80
2022-08-30T23:49:12.962Z,4.32
2022-08-30T23:52:34.147Z,3.55
2022-08-30T23:55:57.881Z,4.80
2022-08-30T23:59:19.243Z,3.55
